sensor_id;sensor_type;location;lat;lon;timestamp;P1;durP1;ratioP1;P2;durP2;ratioP2
3601;SDS011;1815;50.950;6.920;2023-06-19T00:02:18;3.37;;;2.60;;
3601;SDS011;1815;50.950;6.920;2023-06-19T00:04:43;2.90;;;2.30;;
3601;SDS011;1815;50.950;6.920;2023-06-19T00:07:09;4.53;;;2.90;;
3601;SDS011;1815;50.950;6.920;2023-06-19T00:09:35;3.70;;;3.40;;
3601;SDS011;1815;50.950;6.920;2023-06-19T00:12:00;3.60;;;2.80;;
3601;SDS011;1815;50.950;6.920;2023-06-19T00:14:26;3.67;;;2.67;;
3601;SDS011;1815;50.950;6.920;2023-06-19T00:16:52;3.27;;;2.97;;
3601;SDS011;1815;50.950;6.920;2023-06-19T00:19:18;5.80;;;2.60;;
3601;SDS011;1815;50.950;6.920;2023-06-19T00:21:43;4.43;;;3.37;;
3601;SDS011;1815;50.950;6.920;2023-06-19T00:24:09;3.10;;;2.80;;
3601;SDS011;1815;50.950;6.920;2023-06-19T00:26:36;3.30;;;3.00;;
3601;SDS011;1815;50.950;6.920;2023-06-19T00:29:02;3.57;;;3.20;;
3601;SDS011;1815;50.950;6.920;2023-06-19T00:31:27;4.00;;;3.70;;
3601;SDS011;1815;50.950;6.920;2023-06-19T00:33:53;3.00;;;2.70;;
3601;SDS011;1815;50.950;6.920;2023-06-19T00:36:19;3.50;;;3.20;;
3601;SDS011;1815;50.950;6.920;2023-06-19T00:38:46;4.60;;;3.27;;
3601;SDS011;1815;50.950;6.920;2023-06-19T00:41:13;3.77;;;3.27;;
3601;SDS011;1815;50.950;6.920;2023-06-19T00:43:41;4.93;;;3.03;;
3601;SDS011;1815;50.950;6.920;2023-06-19T00:46:07;3.00;;;2.70;;
3601;SDS011;1815;50.950;6.920;2023-06-19T00:48:34;3.57;;;3.20;;
3601;SDS011;1815;50.950;6.920;2023-06-19T00:51:01;3.50;;;3.13;;
3601;SDS011;1815;50.950;6.920;2023-06-19T00:53:27;3.67;;;3.03;;
3601;SDS011;1815;50.950;6.920;2023-06-19T00:55:53;3.20;;;2.70;;
3601;SDS011;1815;50.950;6.920;2023-06-19T00:58:22;4.33;;;3.33;;
3601;SDS011;1815;50.950;6.920;2023-06-19T01:00:48;3.60;;;3.00;;
3601;SDS011;1815;50.950;6.920;2023-06-19T01:03:14;3.47;;;3.17;;
3601;SDS011;1815;50.950;6.920;2023-06-19T01:05:41;4.83;;;4.40;;
3601;SDS011;1815;50.950;6.920;2023-06-19T01:11:12;5.60;;;5.10;;
3601;SDS011;1815;50.950;6.920;2023-06-19T01:13:58;5.20;;;4.70;;
3601;SDS011;1815;50.950;6.920;2023-06-19T01:16:28;4.60;;;3.90;;
3601;SDS011;1815;50.950;6.920;2023-06-19T01:18:55;4.50;;;4.10;;
3601;SDS011;1815;50.950;6.920;2023-06-19T01:21:21;4.23;;;3.83;;
3601;SDS011;1815;50.950;6.920;2023-06-19T01:23:47;4.73;;;4.30;;
3601;SDS011;1815;50.950;6.920;2023-06-19T01:26:12;7.53;;;6.13;;
3601;SDS011;1815;50.950;6.920;2023-06-19T01:28:42;5.03;;;4.57;;
3601;SDS011;1815;50.950;6.920;2023-06-19T01:31:15;4.67;;;4.10;;
3601;SDS011;1815;50.950;6.920;2023-06-19T01:33:50;4.40;;;3.73;;
3601;SDS011;1815;50.950;6.920;2023-06-19T01:36:18;5.10;;;4.70;;
3601;SDS011;1815;50.950;6.920;2023-06-19T01:38:45;4.37;;;3.97;;
3601;SDS011;1815;50.950;6.920;2023-06-19T01:41:13;4.87;;;3.83;;
3601;SDS011;1815;50.950;6.920;2023-06-19T01:43:41;5.23;;;4.73;;
3601;SDS011;1815;50.950;6.920;2023-06-19T01:46:07;3.83;;;3.53;;
3601;SDS011;1815;50.950;6.920;2023-06-19T01:48:38;4.50;;;4.10;;
3601;SDS011;1815;50.950;6.920;2023-06-19T01:51:05;4.70;;;4.30;;
3601;SDS011;1815;50.950;6.920;2023-06-19T01:53:31;7.00;;;4.60;;
3601;SDS011;1815;50.950;6.920;2023-06-19T01:55:57;5.40;;;4.33;;
3601;SDS011;1815;50.950;6.920;2023-06-19T01:58:23;5.80;;;5.10;;
3601;SDS011;1815;50.950;6.920;2023-06-19T02:00:49;5.50;;;5.00;;
3601;SDS011;1815;50.950;6.920;2023-06-19T02:03:15;4.93;;;4.50;;
3601;SDS011;1815;50.950;6.920;2023-06-19T02:05:41;4.90;;;4.40;;
3601;SDS011;1815;50.950;6.920;2023-06-19T02:08:07;5.80;;;5.20;;
3601;SDS011;1815;50.950;6.920;2023-06-19T02:10:35;4.70;;;4.30;;
3601;SDS011;1815;50.950;6.920;2023-06-19T02:13:01;5.17;;;4.67;;
3601;SDS011;1815;50.950;6.920;2023-06-19T02:15:27;5.10;;;4.60;;
3601;SDS011;1815;50.950;6.920;2023-06-19T02:17:56;5.13;;;3.80;;
3601;SDS011;1815;50.950;6.920;2023-06-19T02:20:22;4.73;;;4.27;;
3601;SDS011;1815;50.950;6.920;2023-06-19T02:22:49;4.80;;;4.40;;
3601;SDS011;1815;50.950;6.920;2023-06-19T02:25:16;5.47;;;4.37;;
3601;SDS011;1815;50.950;6.920;2023-06-19T02:27:42;4.47;;;4.07;;
3601;SDS011;1815;50.950;6.920;2023-06-19T02:30:08;4.50;;;4.10;;
3601;SDS011;1815;50.950;6.920;2023-06-19T02:32:34;4.27;;;3.87;;
3601;SDS011;1815;50.950;6.920;2023-06-19T02:35:02;4.67;;;4.23;;
3601;SDS011;1815;50.950;6.920;2023-06-19T02:37:28;5.93;;;4.33;;
3601;SDS011;1815;50.950;6.920;2023-06-19T02:39:54;5.20;;;4.70;;
3601;SDS011;1815;50.950;6.920;2023-06-19T02:42:20;4.10;;;3.70;;
3601;SDS011;1815;50.950;6.920;2023-06-19T02:44:46;4.93;;;4.47;;
3601;SDS011;1815;50.950;6.920;2023-06-19T02:47:13;5.60;;;5.10;;
3601;SDS011;1815;50.950;6.920;2023-06-19T02:49:39;5.27;;;4.53;;
3601;SDS011;1815;50.950;6.920;2023-06-19T02:52:05;5.60;;;5.10;;
3601;SDS011;1815;50.950;6.920;2023-06-19T02:54:31;5.43;;;4.87;;
3601;SDS011;1815;50.950;6.920;2023-06-19T02:56:58;4.80;;;4.40;;
3601;SDS011;1815;50.950;6.920;2023-06-19T02:59:25;5.13;;;4.73;;
3601;SDS011;1815;50.950;6.920;2023-06-19T03:01:50;4.40;;;4.00;;
3601;SDS011;1815;50.950;6.920;2023-06-19T03:04:17;5.27;;;4.77;;
3601;SDS011;1815;50.950;6.920;2023-06-19T03:06:42;5.03;;;4.63;;
3601;SDS011;1815;50.950;6.920;2023-06-19T03:09:08;4.33;;;3.90;;
3601;SDS011;1815;50.950;6.920;2023-06-19T03:11:41;4.90;;;4.50;;
3601;SDS011;1815;50.950;6.920;2023-06-19T03:14:08;4.80;;;4.30;;
3601;SDS011;1815;50.950;6.920;2023-06-19T03:16:34;4.87;;;4.47;;
3601;SDS011;1815;50.950;6.920;2023-06-19T03:19:01;4.10;;;3.50;;
3601;SDS011;1815;50.950;6.920;2023-06-19T03:21:27;5.50;;;4.80;;
3601;SDS011;1815;50.950;6.920;2023-06-19T03:23:53;4.93;;;4.43;;
3601;SDS011;1815;50.950;6.920;2023-06-19T03:26:21;4.83;;;4.43;;
3601;SDS011;1815;50.950;6.920;2023-06-19T03:29:04;5.40;;;5.00;;
3601;SDS011;1815;50.950;6.920;2023-06-19T03:31:58;4.83;;;4.43;;
3601;SDS011;1815;50.950;6.920;2023-06-19T03:34:29;4.93;;;4.43;;
3601;SDS011;1815;50.950;6.920;2023-06-19T03:36:57;6.47;;;4.70;;
3601;SDS011;1815;50.950;6.920;2023-06-19T03:39:22;5.33;;;4.90;;
3601;SDS011;1815;50.950;6.920;2023-06-19T03:41:49;5.67;;;4.63;;
3601;SDS011;1815;50.950;6.920;2023-06-19T03:44:15;4.47;;;4.07;;
3601;SDS011;1815;50.950;6.920;2023-06-19T03:46:41;5.27;;;4.70;;
3601;SDS011;1815;50.950;6.920;2023-06-19T03:49:08;4.53;;;4.13;;
3601;SDS011;1815;50.950;6.920;2023-06-19T03:51:34;5.47;;;4.13;;
3601;SDS011;1815;50.950;6.920;2023-06-19T03:54:01;5.40;;;4.30;;
3601;SDS011;1815;50.950;6.920;2023-06-19T03:56:27;5.90;;;4.13;;
3601;SDS011;1815;50.950;6.920;2023-06-19T03:58:53;4.10;;;3.70;;
3601;SDS011;1815;50.950;6.920;2023-06-19T04:01:19;4.67;;;4.17;;
3601;SDS011;1815;50.950;6.920;2023-06-19T04:03:45;7.50;;;4.50;;
3601;SDS011;1815;50.950;6.920;2023-06-19T04:06:10;4.50;;;3.90;;
3601;SDS011;1815;50.950;6.920;2023-06-19T04:08:38;3.83;;;3.43;;
3601;SDS011;1815;50.950;6.920;2023-06-19T04:11:04;6.10;;;3.73;;
3601;SDS011;1815;50.950;6.920;2023-06-19T04:13:30;4.00;;;3.10;;
3601;SDS011;1815;50.950;6.920;2023-06-19T04:15:56;4.77;;;2.93;;
3601;SDS011;1815;50.950;6.920;2023-06-19T04:18:22;3.37;;;3.07;;
3601;SDS011;1815;50.950;6.920;2023-06-19T04:20:48;5.87;;;3.50;;
3601;SDS011;1815;50.950;6.920;2023-06-19T04:23:13;4.27;;;3.93;;
3601;SDS011;1815;50.950;6.920;2023-06-19T04:25:40;3.30;;;2.53;;
3601;SDS011;1815;50.950;6.920;2023-06-19T04:28:05;3.60;;;2.93;;
3601;SDS011;1815;50.950;6.920;2023-06-19T04:30:31;3.30;;;2.33;;
3601;SDS011;1815;50.950;6.920;2023-06-19T04:32:57;4.30;;;2.40;;
3601;SDS011;1815;50.950;6.920;2023-06-19T04:35:23;3.43;;;3.10;;
3601;SDS011;1815;50.950;6.920;2023-06-19T04:37:49;2.57;;;2.10;;
3601;SDS011;1815;50.950;6.920;2023-06-19T04:40:15;3.00;;;1.83;;
3601;SDS011;1815;50.950;6.920;2023-06-19T04:42:41;2.10;;;1.43;;
3601;SDS011;1815;50.950;6.920;2023-06-19T04:45:07;2.80;;;1.87;;
3601;SDS011;1815;50.950;6.920;2023-06-19T04:47:34;2.03;;;1.43;;
3601;SDS011;1815;50.950;6.920;2023-06-19T04:50:00;2.23;;;1.30;;
3601;SDS011;1815;50.950;6.920;2023-06-19T04:52:26;3.47;;;2.03;;
3601;SDS011;1815;50.950;6.920;2023-06-19T04:54:52;2.90;;;1.40;;
3601;SDS011;1815;50.950;6.920;2023-06-19T04:57:17;3.40;;;1.60;;
3601;SDS011;1815;50.950;6.920;2023-06-19T04:59:43;2.20;;;1.40;;
3601;SDS011;1815;50.950;6.920;2023-06-19T05:02:10;2.40;;;1.87;;
3601;SDS011;1815;50.950;6.920;2023-06-19T05:04:36;2.73;;;1.83;;
3601;SDS011;1815;50.950;6.920;2023-06-19T05:07:01;3.03;;;1.60;;
3601;SDS011;1815;50.950;6.920;2023-06-19T05:09:28;3.20;;;1.63;;
3601;SDS011;1815;50.950;6.920;2023-06-19T05:11:54;4.30;;;1.40;;
3601;SDS011;1815;50.950;6.920;2023-06-19T05:14:19;2.80;;;1.20;;
3601;SDS011;1815;50.950;6.920;2023-06-19T05:16:45;2.93;;;1.40;;
3601;SDS011;1815;50.950;6.920;2023-06-19T05:19:11;2.57;;;1.67;;
3601;SDS011;1815;50.950;6.920;2023-06-19T05:21:36;2.83;;;1.93;;
3601;SDS011;1815;50.950;6.920;2023-06-19T05:24:02;3.50;;;1.50;;
3601;SDS011;1815;50.950;6.920;2023-06-19T05:26:28;2.50;;;1.70;;
3601;SDS011;1815;50.950;6.920;2023-06-19T05:28:54;2.07;;;1.47;;
3601;SDS011;1815;50.950;6.920;2023-06-19T05:31:20;2.33;;;1.40;;
3601;SDS011;1815;50.950;6.920;2023-06-19T05:33:45;1.90;;;1.57;;
3601;SDS011;1815;50.950;6.920;2023-06-19T05:36:11;2.80;;;1.60;;
3601;SDS011;1815;50.950;6.920;2023-06-19T05:38:37;2.40;;;1.13;;
3601;SDS011;1815;50.950;6.920;2023-06-19T05:41:02;5.47;;;1.37;;
3601;SDS011;1815;50.950;6.920;2023-06-19T05:43:28;1.77;;;1.00;;
3601;SDS011;1815;50.950;6.920;2023-06-19T05:45:54;1.77;;;1.10;;
3601;SDS011;1815;50.950;6.920;2023-06-19T05:48:27;1.97;;;1.13;;
3601;SDS011;1815;50.950;6.920;2023-06-19T05:50:53;2.57;;;1.20;;
3601;SDS011;1815;50.950;6.920;2023-06-19T05:53:22;2.23;;;1.20;;
3601;SDS011;1815;50.950;6.920;2023-06-19T05:55:48;2.03;;;1.10;;
3601;SDS011;1815;50.950;6.920;2023-06-19T05:58:14;1.90;;;1.00;;
3601;SDS011;1815;50.950;6.920;2023-06-19T06:00:40;3.83;;;1.00;;
3601;SDS011;1815;50.950;6.920;2023-06-19T06:03:05;4.27;;;0.90;;
3601;SDS011;1815;50.950;6.920;2023-06-19T06:05:31;2.10;;;1.00;;
3601;SDS011;1815;50.950;6.920;2023-06-19T06:07:57;2.23;;;1.20;;
3601;SDS011;1815;50.950;6.920;2023-06-19T06:10:23;2.00;;;1.10;;
3601;SDS011;1815;50.950;6.920;2023-06-19T06:12:50;2.23;;;1.00;;
3601;SDS011;1815;50.950;6.920;2023-06-19T06:15:16;3.13;;;1.07;;
3601;SDS011;1815;50.950;6.920;2023-06-19T06:17:42;1.60;;;0.90;;
3601;SDS011;1815;50.950;6.920;2023-06-19T06:20:08;2.80;;;1.27;;
3601;SDS011;1815;50.950;6.920;2023-06-19T06:22:38;1.80;;;1.03;;
3601;SDS011;1815;50.950;6.920;2023-06-19T06:25:04;1.70;;;0.90;;
3601;SDS011;1815;50.950;6.920;2023-06-19T06:27:30;1.90;;;1.07;;
3601;SDS011;1815;50.950;6.920;2023-06-19T06:29:56;2.33;;;0.90;;
3601;SDS011;1815;50.950;6.920;2023-06-19T06:32:22;1.60;;;0.83;;
3601;SDS011;1815;50.950;6.920;2023-06-19T06:34:48;1.63;;;0.80;;
3601;SDS011;1815;50.950;6.920;2023-06-19T06:37:14;3.37;;;1.77;;
3601;SDS011;1815;50.950;6.920;2023-06-19T06:39:42;2.10;;;0.90;;
3601;SDS011;1815;50.950;6.920;2023-06-19T06:42:08;1.60;;;0.90;;
3601;SDS011;1815;50.950;6.920;2023-06-19T06:44:35;2.90;;;1.40;;
3601;SDS011;1815;50.950;6.920;2023-06-19T06:47:00;2.03;;;1.00;;
3601;SDS011;1815;50.950;6.920;2023-06-19T06:49:26;1.70;;;0.90;;
3601;SDS011;1815;50.950;6.920;2023-06-19T06:51:52;2.13;;;0.90;;
3601;SDS011;1815;50.950;6.920;2023-06-19T06:54:18;2.53;;;1.03;;
3601;SDS011;1815;50.950;6.920;2023-06-19T06:56:44;1.60;;;0.90;;
3601;SDS011;1815;50.950;6.920;2023-06-19T06:59:13;1.60;;;0.80;;
3601;SDS011;1815;50.950;6.920;2023-06-19T07:01:41;2.23;;;0.83;;
3601;SDS011;1815;50.950;6.920;2023-06-19T07:04:07;1.50;;;0.67;;
3601;SDS011;1815;50.950;6.920;2023-06-19T07:06:33;1.50;;;0.70;;
3601;SDS011;1815;50.950;6.920;2023-06-19T07:08:58;1.90;;;0.73;;
3601;SDS011;1815;50.950;6.920;2023-06-19T07:11:27;1.30;;;0.50;;
3601;SDS011;1815;50.950;6.920;2023-06-19T07:13:53;1.50;;;0.80;;
3601;SDS011;1815;50.950;6.920;2023-06-19T07:16:18;1.70;;;0.70;;
3601;SDS011;1815;50.950;6.920;2023-06-19T07:18:44;1.50;;;0.70;;
3601;SDS011;1815;50.950;6.920;2023-06-19T07:21:13;2.17;;;0.90;;
3601;SDS011;1815;50.950;6.920;2023-06-19T07:23:40;2.83;;;0.80;;
3601;SDS011;1815;50.950;6.920;2023-06-19T07:26:07;6.70;;;1.17;;
3601;SDS011;1815;50.950;6.920;2023-06-19T07:28:36;1.80;;;0.60;;
3601;SDS011;1815;50.950;6.920;2023-06-19T07:31:02;1.90;;;0.70;;
3601;SDS011;1815;50.950;6.920;2023-06-19T07:33:28;1.70;;;0.70;;
3601;SDS011;1815;50.950;6.920;2023-06-19T07:35:55;1.70;;;0.67;;
3601;SDS011;1815;50.950;6.920;2023-06-19T07:38:21;1.47;;;0.80;;
3601;SDS011;1815;50.950;6.920;2023-06-19T07:40:47;2.13;;;0.60;;
3601;SDS011;1815;50.950;6.920;2023-06-19T07:43:13;2.17;;;0.60;;
3601;SDS011;1815;50.950;6.920;2023-06-19T07:45:38;1.87;;;0.67;;
3601;SDS011;1815;50.950;6.920;2023-06-19T07:48:04;1.60;;;0.73;;
3601;SDS011;1815;50.950;6.920;2023-06-19T07:50:30;2.07;;;0.80;;
3601;SDS011;1815;50.950;6.920;2023-06-19T07:52:57;1.80;;;0.80;;
3601;SDS011;1815;50.950;6.920;2023-06-19T07:55:23;1.50;;;0.70;;
3601;SDS011;1815;50.950;6.920;2023-06-19T07:57:48;1.50;;;0.70;;
3601;SDS011;1815;50.950;6.920;2023-06-19T08:00:14;1.70;;;1.03;;
3601;SDS011;1815;50.950;6.920;2023-06-19T08:02:40;2.73;;;0.80;;
3601;SDS011;1815;50.950;6.920;2023-06-19T08:05:07;2.10;;;0.97;;
3601;SDS011;1815;50.950;6.920;2023-06-19T08:07:34;3.40;;;0.73;;
3601;SDS011;1815;50.950;6.920;2023-06-19T08:10:00;1.90;;;1.00;;
3601;SDS011;1815;50.950;6.920;2023-06-19T08:12:28;1.50;;;0.80;;
3601;SDS011;1815;50.950;6.920;2023-06-19T08:14:54;1.70;;;1.00;;
3601;SDS011;1815;50.950;6.920;2023-06-19T08:17:20;2.77;;;0.80;;
3601;SDS011;1815;50.950;6.920;2023-06-19T08:19:47;1.40;;;0.70;;
3601;SDS011;1815;50.950;6.920;2023-06-19T08:22:13;2.57;;;0.70;;
3601;SDS011;1815;50.950;6.920;2023-06-19T08:24:38;2.50;;;0.77;;
3601;SDS011;1815;50.950;6.920;2023-06-19T08:27:06;2.83;;;0.90;;
3601;SDS011;1815;50.950;6.920;2023-06-19T08:29:32;2.40;;;1.20;;
3601;SDS011;1815;50.950;6.920;2023-06-19T08:31:58;2.00;;;0.90;;
3601;SDS011;1815;50.950;6.920;2023-06-19T08:34:24;2.00;;;0.80;;
3601;SDS011;1815;50.950;6.920;2023-06-19T08:36:49;1.70;;;0.90;;
3601;SDS011;1815;50.950;6.920;2023-06-19T08:39:15;1.60;;;0.70;;
3601;SDS011;1815;50.950;6.920;2023-06-19T08:41:41;2.27;;;0.67;;
3601;SDS011;1815;50.950;6.920;2023-06-19T08:44:08;1.80;;;0.90;;
3601;SDS011;1815;50.950;6.920;2023-06-19T08:46:34;2.37;;;1.00;;
3601;SDS011;1815;50.950;6.920;2023-06-19T08:49:02;1.93;;;0.90;;
3601;SDS011;1815;50.950;6.920;2023-06-19T08:51:29;1.60;;;0.80;;
3601;SDS011;1815;50.950;6.920;2023-06-19T08:53:56;1.60;;;0.80;;
3601;SDS011;1815;50.950;6.920;2023-06-19T08:56:26;2.60;;;1.20;;
3601;SDS011;1815;50.950;6.920;2023-06-19T08:58:52;2.17;;;0.70;;
3601;SDS011;1815;50.950;6.920;2023-06-19T09:01:18;2.40;;;1.10;;
3601;SDS011;1815;50.950;6.920;2023-06-19T09:03:45;2.87;;;1.00;;
3601;SDS011;1815;50.950;6.920;2023-06-19T09:06:14;2.00;;;1.00;;
3601;SDS011;1815;50.950;6.920;2023-06-19T09:08:43;2.47;;;1.20;;
3601;SDS011;1815;50.950;6.920;2023-06-19T09:11:10;2.37;;;1.00;;
3601;SDS011;1815;50.950;6.920;2023-06-19T09:13:37;2.67;;;1.13;;
3601;SDS011;1815;50.950;6.920;2023-06-19T09:16:04;2.90;;;1.20;;
3601;SDS011;1815;50.950;6.920;2023-06-19T09:18:32;2.13;;;0.90;;
3601;SDS011;1815;50.950;6.920;2023-06-19T09:21:17;1.70;;;1.00;;
3601;SDS011;1815;50.950;6.920;2023-06-19T09:23:45;3.27;;;1.60;;
3601;SDS011;1815;50.950;6.920;2023-06-19T09:26:16;3.93;;;1.40;;
3601;SDS011;1815;50.950;6.920;2023-06-19T09:28:44;1.83;;;1.07;;
3601;SDS011;1815;50.950;6.920;2023-06-19T09:31:11;2.80;;;1.20;;
3601;SDS011;1815;50.950;6.920;2023-06-19T09:33:38;2.27;;;1.40;;
3601;SDS011;1815;50.950;6.920;2023-06-19T09:36:05;2.47;;;1.10;;
3601;SDS011;1815;50.950;6.920;2023-06-19T09:38:32;3.00;;;1.60;;
3601;SDS011;1815;50.950;6.920;2023-06-19T09:41:01;1.97;;;1.27;;
3601;SDS011;1815;50.950;6.920;2023-06-19T09:43:30;2.43;;;1.10;;
3601;SDS011;1815;50.950;6.920;2023-06-19T09:46:02;2.00;;;1.23;;
3601;SDS011;1815;50.950;6.920;2023-06-19T09:48:30;2.33;;;1.70;;
3601;SDS011;1815;50.950;6.920;2023-06-19T09:51:41;3.17;;;1.70;;
3601;SDS011;1815;50.950;6.920;2023-06-19T09:53:53;2.77;;;1.40;;
3601;SDS011;1815;50.950;6.920;2023-06-19T09:56:19;3.73;;;1.63;;
3601;SDS011;1815;50.950;6.920;2023-06-19T09:58:50;3.00;;;2.13;;
3601;SDS011;1815;50.950;6.920;2023-06-19T10:01:17;5.23;;;1.70;;
3601;SDS011;1815;50.950;6.920;2023-06-19T10:03:44;3.70;;;1.40;;
3601;SDS011;1815;50.950;6.920;2023-06-19T10:06:14;2.87;;;1.87;;
3601;SDS011;1815;50.950;6.920;2023-06-19T10:08:41;2.00;;;1.80;;
3601;SDS011;1815;50.950;6.920;2023-06-19T10:11:09;2.30;;;1.53;;
3601;SDS011;1815;50.950;6.920;2023-06-19T10:13:36;3.50;;;1.87;;
3601;SDS011;1815;50.950;6.920;2023-06-19T10:16:05;4.03;;;1.60;;
3601;SDS011;1815;50.950;6.920;2023-06-19T10:18:47;2.77;;;1.50;;
3601;SDS011;1815;50.950;6.920;2023-06-19T10:21:16;2.43;;;1.63;;
3601;SDS011;1815;50.950;6.920;2023-06-19T10:23:43;4.27;;;2.00;;
3601;SDS011;1815;50.950;6.920;2023-06-19T10:26:29;2.27;;;1.40;;
3601;SDS011;1815;50.950;6.920;2023-06-19T10:28:56;3.87;;;1.70;;
3601;SDS011;1815;50.950;6.920;2023-06-19T10:31:22;2.50;;;1.40;;
3601;SDS011;1815;50.950;6.920;2023-06-19T10:33:48;2.43;;;1.67;;
3601;SDS011;1815;50.950;6.920;2023-06-19T10:36:20;2.73;;;2.00;;
3601;SDS011;1815;50.950;6.920;2023-06-19T10:38:48;7.70;;;2.00;;
3601;SDS011;1815;50.950;6.920;2023-06-19T10:43:52;1.70;;;1.20;;
3601;SDS011;1815;50.950;6.920;2023-06-19T10:46:40;3.07;;;1.70;;
3601;SDS011;1815;50.950;6.920;2023-06-19T10:49:07;4.90;;;1.80;;
3601;SDS011;1815;50.950;6.920;2023-06-19T10:51:35;3.10;;;1.60;;
3601;SDS011;1815;50.950;6.920;2023-06-19T10:54:02;8.50;;;2.43;;
3601;SDS011;1815;50.950;6.920;2023-06-19T10:56:29;4.27;;;2.00;;
3601;SDS011;1815;50.950;6.920;2023-06-19T10:58:59;2.70;;;1.80;;
3601;SDS011;1815;50.950;6.920;2023-06-19T11:01:33;3.00;;;1.77;;
3601;SDS011;1815;50.950;6.920;2023-06-19T11:04:03;3.67;;;1.80;;
3601;SDS011;1815;50.950;6.920;2023-06-19T11:06:30;3.37;;;1.73;;
3601;SDS011;1815;50.950;6.920;2023-06-19T11:08:56;3.87;;;1.53;;
3601;SDS011;1815;50.950;6.920;2023-06-19T11:11:22;4.03;;;1.40;;
3601;SDS011;1815;50.950;6.920;2023-06-19T11:13:48;3.70;;;2.07;;
3601;SDS011;1815;50.950;6.920;2023-06-19T11:16:15;3.00;;;2.13;;
3601;SDS011;1815;50.950;6.920;2023-06-19T11:18:41;3.50;;;2.10;;
3601;SDS011;1815;50.950;6.920;2023-06-19T11:21:07;3.60;;;1.70;;
3601;SDS011;1815;50.950;6.920;2023-06-19T11:23:32;2.90;;;2.13;;
3601;SDS011;1815;50.950;6.920;2023-06-19T11:26:05;2.53;;;1.97;;
3601;SDS011;1815;50.950;6.920;2023-06-19T11:28:31;5.40;;;2.33;;
3601;SDS011;1815;50.950;6.920;2023-06-19T11:30:58;2.73;;;2.10;;
3601;SDS011;1815;50.950;6.920;2023-06-19T11:33:26;3.53;;;2.10;;
3601;SDS011;1815;50.950;6.920;2023-06-19T11:35:52;2.97;;;1.60;;
3601;SDS011;1815;50.950;6.920;2023-06-19T11:38:26;2.90;;;1.80;;
3601;SDS011;1815;50.950;6.920;2023-06-19T11:40:56;3.20;;;1.87;;
3601;SDS011;1815;50.950;6.920;2023-06-19T11:43:30;3.47;;;1.93;;
3601;SDS011;1815;50.950;6.920;2023-06-19T11:46:03;2.30;;;1.77;;
3601;SDS011;1815;50.950;6.920;2023-06-19T11:48:35;2.73;;;1.83;;
3601;SDS011;1815;50.950;6.920;2023-06-19T11:51:03;3.83;;;1.70;;
3601;SDS011;1815;50.950;6.920;2023-06-19T11:53:28;3.30;;;1.70;;
3601;SDS011;1815;50.950;6.920;2023-06-19T11:55:55;4.13;;;1.80;;
3601;SDS011;1815;50.950;6.920;2023-06-19T11:58:21;5.63;;;2.43;;
3601;SDS011;1815;50.950;6.920;2023-06-19T12:00:47;4.23;;;2.17;;
3601;SDS011;1815;50.950;6.920;2023-06-19T12:03:18;3.00;;;1.90;;
3601;SDS011;1815;50.950;6.920;2023-06-19T12:05:43;3.27;;;2.10;;
3601;SDS011;1815;50.950;6.920;2023-06-19T12:08:18;7.10;;;1.67;;
3601;SDS011;1815;50.950;6.920;2023-06-19T12:10:44;3.60;;;2.07;;
3601;SDS011;1815;50.950;6.920;2023-06-19T12:13:10;2.47;;;1.57;;
3601;SDS011;1815;50.950;6.920;2023-06-19T12:15:36;3.53;;;1.90;;
3601;SDS011;1815;50.950;6.920;2023-06-19T12:18:02;2.63;;;1.77;;
3601;SDS011;1815;50.950;6.920;2023-06-19T12:20:28;4.80;;;2.10;;
3601;SDS011;1815;50.950;6.920;2023-06-19T12:22:55;2.97;;;2.13;;
3601;SDS011;1815;50.950;6.920;2023-06-19T12:25:20;5.30;;;2.33;;
3601;SDS011;1815;50.950;6.920;2023-06-19T12:27:46;3.97;;;1.80;;
3601;SDS011;1815;50.950;6.920;2023-06-19T12:30:15;2.73;;;1.70;;
3601;SDS011;1815;50.950;6.920;2023-06-19T12:32:40;3.47;;;1.87;;
3601;SDS011;1815;50.950;6.920;2023-06-19T12:35:06;4.40;;;1.57;;
3601;SDS011;1815;50.950;6.920;2023-06-19T12:37:32;3.37;;;1.97;;
3601;SDS011;1815;50.950;6.920;2023-06-19T12:39:58;2.50;;;1.70;;
3601;SDS011;1815;50.950;6.920;2023-06-19T12:42:24;2.70;;;1.57;;
3601;SDS011;1815;50.950;6.920;2023-06-19T12:44:49;2.20;;;1.40;;
3601;SDS011;1815;50.950;6.920;2023-06-19T12:47:15;3.20;;;2.23;;
3601;SDS011;1815;50.950;6.920;2023-06-19T12:49:43;2.90;;;1.83;;
3601;SDS011;1815;50.950;6.920;2023-06-19T12:52:09;4.73;;;2.00;;
3601;SDS011;1815;50.950;6.920;2023-06-19T12:54:34;3.80;;;2.03;;
3601;SDS011;1815;50.950;6.920;2023-06-19T12:57:01;4.30;;;2.00;;
3601;SDS011;1815;50.950;6.920;2023-06-19T12:59:27;2.83;;;2.13;;
3601;SDS011;1815;50.950;6.920;2023-06-19T13:01:54;3.20;;;1.73;;
3601;SDS011;1815;50.950;6.920;2023-06-19T13:04:20;4.20;;;1.73;;
3601;SDS011;1815;50.950;6.920;2023-06-19T13:06:45;2.37;;;2.10;;
3601;SDS011;1815;50.950;6.920;2023-06-19T13:09:11;2.93;;;1.90;;
3601;SDS011;1815;50.950;6.920;2023-06-19T13:11:40;3.30;;;1.77;;
3601;SDS011;1815;50.950;6.920;2023-06-19T13:14:06;2.50;;;1.60;;
3601;SDS011;1815;50.950;6.920;2023-06-19T13:16:31;6.33;;;1.40;;
3601;SDS011;1815;50.950;6.920;2023-06-19T13:18:57;3.70;;;2.17;;
3601;SDS011;1815;50.950;6.920;2023-06-19T13:21:23;3.53;;;1.53;;
3601;SDS011;1815;50.950;6.920;2023-06-19T13:23:49;5.17;;;1.70;;
3601;SDS011;1815;50.950;6.920;2023-06-19T13:26:23;5.60;;;1.60;;
3601;SDS011;1815;50.950;6.920;2023-06-19T13:28:49;4.33;;;1.70;;
3601;SDS011;1815;50.950;6.920;2023-06-19T13:33:54;3.20;;;1.80;;
3601;SDS011;1815;50.950;6.920;2023-06-19T13:36:25;2.63;;;1.60;;
3601;SDS011;1815;50.950;6.920;2023-06-19T13:38:52;2.20;;;2.00;;
3601;SDS011;1815;50.950;6.920;2023-06-19T13:43:52;4.33;;;2.03;;
3601;SDS011;1815;50.950;6.920;2023-06-19T13:46:19;4.37;;;2.20;;
3601;SDS011;1815;50.950;6.920;2023-06-19T13:48:47;3.00;;;1.97;;
3601;SDS011;1815;50.950;6.920;2023-06-19T13:51:16;2.80;;;1.53;;
3601;SDS011;1815;50.950;6.920;2023-06-19T13:53:43;2.57;;;1.83;;
3601;SDS011;1815;50.950;6.920;2023-06-19T13:56:10;2.43;;;1.83;;
3601;SDS011;1815;50.950;6.920;2023-06-19T13:58:39;2.87;;;1.43;;
3601;SDS011;1815;50.950;6.920;2023-06-19T14:01:04;3.23;;;1.97;;
3601;SDS011;1815;50.950;6.920;2023-06-19T14:03:31;2.40;;;1.60;;
3601;SDS011;1815;50.950;6.920;2023-06-19T14:05:57;3.03;;;2.17;;
3601;SDS011;1815;50.950;6.920;2023-06-19T14:08:23;2.97;;;2.10;;
3601;SDS011;1815;50.950;6.920;2023-06-19T14:10:49;2.83;;;1.70;;
3601;SDS011;1815;50.950;6.920;2023-06-19T14:13:15;2.40;;;1.80;;
3601;SDS011;1815;50.950;6.920;2023-06-19T14:15:41;3.10;;;2.10;;
3601;SDS011;1815;50.950;6.920;2023-06-19T14:18:07;3.93;;;1.87;;
3601;SDS011;1815;50.950;6.920;2023-06-19T14:20:33;3.90;;;1.97;;
3601;SDS011;1815;50.950;6.920;2023-06-19T14:22:59;3.03;;;2.37;;
3601;SDS011;1815;50.950;6.920;2023-06-19T14:25:26;1.93;;;1.47;;
3601;SDS011;1815;50.950;6.920;2023-06-19T14:27:52;2.30;;;1.30;;
3601;SDS011;1815;50.950;6.920;2023-06-19T14:30:18;2.90;;;1.67;;
3601;SDS011;1815;50.950;6.920;2023-06-19T14:32:44;2.60;;;1.37;;
3601;SDS011;1815;50.950;6.920;2023-06-19T14:35:10;2.73;;;1.30;;
3601;SDS011;1815;50.950;6.920;2023-06-19T14:37:36;2.33;;;1.40;;
3601;SDS011;1815;50.950;6.920;2023-06-19T14:40:02;2.73;;;1.23;;
3601;SDS011;1815;50.950;6.920;2023-06-19T14:42:28;3.33;;;1.73;;
3601;SDS011;1815;50.950;6.920;2023-06-19T14:44:54;3.00;;;1.40;;
3601;SDS011;1815;50.950;6.920;2023-06-19T14:47:19;2.97;;;1.33;;
3601;SDS011;1815;50.950;6.920;2023-06-19T14:49:45;1.70;;;1.13;;
3601;SDS011;1815;50.950;6.920;2023-06-19T14:52:12;2.27;;;1.30;;
3601;SDS011;1815;50.950;6.920;2023-06-19T14:54:40;1.90;;;1.17;;
3601;SDS011;1815;50.950;6.920;2023-06-19T14:57:06;4.40;;;1.73;;
3601;SDS011;1815;50.950;6.920;2023-06-19T14:59:32;3.50;;;1.90;;
3601;SDS011;1815;50.950;6.920;2023-06-19T15:01:57;3.80;;;2.00;;
3601;SDS011;1815;50.950;6.920;2023-06-19T15:04:23;3.60;;;1.73;;
3601;SDS011;1815;50.950;6.920;2023-06-19T15:06:49;4.30;;;2.40;;
3601;SDS011;1815;50.950;6.920;2023-06-19T15:09:14;3.00;;;1.90;;
3601;SDS011;1815;50.950;6.920;2023-06-19T15:11:40;2.53;;;1.83;;
3601;SDS011;1815;50.950;6.920;2023-06-19T15:14:06;2.73;;;1.90;;
3601;SDS011;1815;50.950;6.920;2023-06-19T15:16:32;3.30;;;1.80;;
3601;SDS011;1815;50.950;6.920;2023-06-19T15:18:57;2.90;;;2.10;;
3601;SDS011;1815;50.950;6.920;2023-06-19T15:21:24;2.93;;;1.90;;
3601;SDS011;1815;50.950;6.920;2023-06-19T15:23:52;5.10;;;1.87;;
3601;SDS011;1815;50.950;6.920;2023-06-19T15:26:19;3.63;;;2.00;;